sensor_id;sensor_type;location;lat;lon;timestamp;pressure;altitude;pressure_sealevel;temperature;humidity
73220;BME280;61434;43.538;-5.688;2023-02-02T00:01:53;103130.94;;;10.65;65.48
73220;BME280;61434;43.538;-5.688;2023-02-02T00:04:27;103134.06;;;10.93;65.35
73220;BME280;61434;43.538;-5.688;2023-02-02T00:06:54;103130.84;;;10.66;64.96
73220;BME280;61434;43.538;-5.688;2023-02-02T00:09:22;103127.38;;;10.64;65.09
73220;BME280;61434;43.538;-5.688;2023-02-02T00:11:48;103118.66;;;10.39;65.53
73220;BME280;61434;43.538;-5.688;2023-02-02T00:14:16;103123.50;;;10.51;65.20
73220;BME280;61434;43.538;-5.688;2023-02-02T00:16:46;103124.63;;;10.26;66.05
73220;BME280;61434;43.538;-5.688;2023-02-02T00:19:17;103121.13;;;10.04;65.69
73220;BME280;61434;43.538;-5.688;2023-02-02T00:21:44;103127.84;;;10.14;66.29
73220;BME280;61434;43.538;-5.688;2023-02-02T00:24:13;103119.09;;;10.30;65.68
73220;BME280;61434;43.538;-5.688;2023-02-02T00:26:41;103111.91;;;9.89;65.81
73220;BME280;61434;43.538;-5.688;2023-02-02T00:29:13;103118.09;;;10.12;65.49
73220;BME280;61434;43.538;-5.688;2023-02-02T00:31:39;103116.16;;;9.95;65.87
73220;BME280;61434;43.538;-5.688;2023-02-02T00:34:04;103114.25;;;9.76;66.07
73220;BME280;61434;43.538;-5.688;2023-02-02T00:36:29;103104.50;;;9.94;65.82
73220;BME280;61434;43.538;-5.688;2023-02-02T00:38:55;103109.34;;;9.45;66.47
73220;BME280;61434;43.538;-5.688;2023-02-02T00:41:20;103120.13;;;9.66;66.06
73220;BME280;61434;43.538;-5.688;2023-02-02T00:43:46;103105.38;;;9.74;65.43
73220;BME280;61434;43.538;-5.688;2023-02-02T00:46:31;103108.06;;;9.54;64.98
73220;BME280;61434;43.538;-5.688;2023-02-02T00:48:57;103107.13;;;9.55;65.13
73220;BME280;61434;43.538;-5.688;2023-02-02T00:51:22;103106.38;;;9.72;65.34
73220;BME280;61434;43.538;-5.688;2023-02-02T00:53:48;103104.63;;;9.71;64.38
73220;BME280;61434;43.538;-5.688;2023-02-02T00:56:13;103094.16;;;9.44;65.07
73220;BME280;61434;43.538;-5.688;2023-02-02T00:58:38;103100.63;;;9.39;64.42
73220;BME280;61434;43.538;-5.688;2023-02-02T01:01:04;103092.06;;;9.71;64.59
73220;BME280;61434;43.538;-5.688;2023-02-02T01:03:29;103093.44;;;10.00;62.97
73220;BME280;61434;43.538;-5.688;2023-02-02T01:05:55;103095.13;;;9.42;63.54
73220;BME280;61434;43.538;-5.688;2023-02-02T01:08:20;103089.25;;;9.54;63.68
73220;BME280;61434;43.538;-5.688;2023-02-02T01:10:47;103091.94;;;9.54;63.67
73220;BME280;61434;43.538;-5.688;2023-02-02T01:13:12;103080.69;;;9.65;63.37
73220;BME280;61434;43.538;-5.688;2023-02-02T01:15:38;103085.81;;;9.50;62.88
73220;BME280;61434;43.538;-5.688;2023-02-02T01:18:03;103092.63;;;9.37;63.50
73220;BME280;61434;43.538;-5.688;2023-02-02T01:20:29;103086.94;;;9.45;62.97
73220;BME280;61434;43.538;-5.688;2023-02-02T01:22:55;103066.41;;;9.42;62.67
73220;BME280;61434;43.538;-5.688;2023-02-02T01:25:21;103083.78;;;9.35;63.05
73220;BME280;61434;43.538;-5.688;2023-02-02T01:27:46;103079.84;;;9.22;63.16
73220;BME280;61434;43.538;-5.688;2023-02-02T01:30:12;103086.22;;;9.19;63.09
73220;BME280;61434;43.538;-5.688;2023-02-02T01:32:38;103092.06;;;9.29;63.69
73220;BME280;61434;43.538;-5.688;2023-02-02T01:35:04;103083.34;;;9.24;63.33
73220;BME280;61434;43.538;-5.688;2023-02-02T01:37:29;103087.78;;;8.81;64.15
73220;BME280;61434;43.538;-5.688;2023-02-02T01:39:54;103093.41;;;9.19;63.84
73220;BME280;61434;43.538;-5.688;2023-02-02T01:42:21;103086.84;;;9.04;63.82
73220;BME280;61434;43.538;-5.688;2023-02-02T01:45:16;103089.63;;;8.34;65.84
73220;BME280;61434;43.538;-5.688;2023-02-02T01:47:50;103090.72;;;8.75;65.53
73220;BME280;61434;43.538;-5.688;2023-02-02T01:50:17;103095.81;;;8.83;64.64
73220;BME280;61434;43.538;-5.688;2023-02-02T01:52:46;103092.00;;;8.88;64.04
73220;BME280;61434;43.538;-5.688;2023-02-02T01:55:14;103095.88;;;9.03;63.91
73220;BME280;61434;43.538;-5.688;2023-02-02T02:00:21;103093.19;;;9.03;63.10
73220;BME280;61434;43.538;-5.688;2023-02-02T02:02:51;103104.03;;;9.00;62.23
73220;BME280;61434;43.538;-5.688;2023-02-02T02:05:26;103093.72;;;8.67;62.79
73220;BME280;61434;43.538;-5.688;2023-02-02T02:07:56;103097.06;;;8.51;63.98
73220;BME280;61434;43.538;-5.688;2023-02-02T02:10:23;103092.09;;;8.40;63.92
73220;BME280;61434;43.538;-5.688;2023-02-02T02:12:49;103094.56;;;8.46;64.19
73220;BME280;61434;43.538;-5.688;2023-02-02T02:15:14;103086.59;;;8.43;64.35
73220;BME280;61434;43.538;-5.688;2023-02-02T02:18:05;103093.44;;;8.52;64.41
73220;BME280;61434;43.538;-5.688;2023-02-02T02:20:57;103090.78;;;8.27;64.73
73220;BME280;61434;43.538;-5.688;2023-02-02T02:24:24;103091.19;;;8.16;65.09
73220;BME280;61434;43.538;-5.688;2023-02-02T02:27:52;103092.84;;;8.20;65.25
73220;BME280;61434;43.538;-5.688;2023-02-02T02:33:14;103090.72;;;8.53;63.86
73220;BME280;61434;43.538;-5.688;2023-02-02T02:36:14;103084.78;;;8.20;65.45
73220;BME280;61434;43.538;-5.688;2023-02-02T02:39:16;103090.66;;;8.06;66.46
73220;BME280;61434;43.538;-5.688;2023-02-02T02:41:49;103089.84;;;8.28;66.08
73220;BME280;61434;43.538;-5.688;2023-02-02T02:44:18;103090.84;;;8.25;64.96
73220;BME280;61434;43.538;-5.688;2023-02-02T02:46:44;103089.16;;;8.69;64.91
73220;BME280;61434;43.538;-5.688;2023-02-02T02:49:11;103087.19;;;8.51;64.42
73220;BME280;61434;43.538;-5.688;2023-02-02T02:51:49;103086.31;;;8.51;64.43
73220;BME280;61434;43.538;-5.688;2023-02-02T02:55:03;103083.81;;;8.46;63.90
73220;BME280;61434;43.538;-5.688;2023-02-02T02:59:50;103083.31;;;8.35;64.36
73220;BME280;61434;43.538;-5.688;2023-02-02T03:08:13;103076.56;;;7.76;65.53
73220;BME280;61434;43.538;-5.688;2023-02-02T03:10:43;103069.06;;;7.86;64.93
73220;BME280;61434;43.538;-5.688;2023-02-02T03:13:10;103059.97;;;8.13;64.94
73220;BME280;61434;43.538;-5.688;2023-02-02T03:15:40;103062.78;;;8.34;64.01
73220;BME280;61434;43.538;-5.688;2023-02-02T03:18:06;103057.53;;;8.31;63.41
73220;BME280;61434;43.538;-5.688;2023-02-02T03:20:32;103047.25;;;8.87;62.90
73220;BME280;61434;43.538;-5.688;2023-02-02T03:22:58;103054.25;;;8.91;62.19
73220;BME280;61434;43.538;-5.688;2023-02-02T03:25:23;103047.00;;;8.93;62.02
73220;BME280;61434;43.538;-5.688;2023-02-02T03:27:49;103045.41;;;9.10;61.26
73220;BME280;61434;43.538;-5.688;2023-02-02T03:30:15;61621.03;;;-144.32;100.00
73220;BME280;61434;43.538;-5.688;2023-02-02T03:32:41;61621.03;;;-144.32;100.00
73220;BME280;61434;43.538;-5.688;2023-02-02T03:35:08;61621.03;;;-144.32;100.00
73220;BME280;61434;43.538;-5.688;2023-02-02T03:37:33;61621.03;;;-144.32;100.00
73220;BME280;61434;43.538;-5.688;2023-02-02T03:39:59;61621.03;;;-144.32;100.00
73220;BME280;61434;43.538;-5.688;2023-02-02T03:42:25;61621.03;;;-144.32;100.00
73220;BME280;61434;43.538;-5.688;2023-02-02T03:44:50;61621.03;;;-144.32;100.00
73220;BME280;61434;43.538;-5.688;2023-02-02T03:47:16;61621.03;;;-144.32;100.00
73220;BME280;61434;43.538;-5.688;2023-02-02T03:49:41;61621.03;;;-144.32;100.00
73220;BME280;61434;43.538;-5.688;2023-02-02T03:52:07;61621.03;;;-144.32;100.00
73220;BME280;61434;43.538;-5.688;2023-02-02T03:54:33;79063.72;;;-144.32;61.26
73220;BME280;61434;43.538;-5.688;2023-02-02T03:56:58;103030.78;;;8.95;61.91
73220;BME280;61434;43.538;-5.688;2023-02-02T03:59:24;103030.09;;;8.90;62.63
73220;BME280;61434;43.538;-5.688;2023-02-02T04:01:49;103035.38;;;8.93;62.33
73220;BME280;61434;43.538;-5.688;2023-02-02T04:04:15;103033.28;;;8.56;62.17
73220;BME280;61434;43.538;-5.688;2023-02-02T04:06:40;103031.50;;;8.78;61.77
73220;BME280;61434;43.538;-5.688;2023-02-02T04:09:06;103025.59;;;8.90;62.16
73220;BME280;61434;43.538;-5.688;2023-02-02T04:11:31;103024.72;;;8.90;61.83
73220;BME280;61434;43.538;-5.688;2023-02-02T04:13:57;103023.25;;;8.83;61.46
73220;BME280;61434;43.538;-5.688;2023-02-02T04:16:22;103023.66;;;8.50;62.16
73220;BME280;61434;43.538;-5.688;2023-02-02T04:18:47;103021.94;;;8.93;61.86
73220;BME280;61434;43.538;-5.688;2023-02-02T04:21:13;103027.09;;;8.97;61.03
73220;BME280;61434;43.538;-5.688;2023-02-02T04:23:38;103020.47;;;9.06;61.04
73220;BME280;61434;43.538;-5.688;2023-02-02T04:26:04;103016.72;;;9.10;60.97
73220;BME280;61434;43.538;-5.688;2023-02-02T04:28:30;103021.16;;;9.11;60.42
73220;BME280;61434;43.538;-5.688;2023-02-02T04:30:56;103016.47;;;9.16;61.02
73220;BME280;61434;43.538;-5.688;2023-02-02T04:33:23;103018.28;;;9.36;60.08
73220;BME280;61434;43.538;-5.688;2023-02-02T04:35:49;103017.84;;;9.05;61.00
73220;BME280;61434;43.538;-5.688;2023-02-02T04:38:15;103013.09;;;9.11;60.80
73220;BME280;61434;43.538;-5.688;2023-02-02T04:40:41;103005.25;;;9.05;60.94
73220;BME280;61434;43.538;-5.688;2023-02-02T04:43:08;103011.59;;;9.04;60.91
73220;BME280;61434;43.538;-5.688;2023-02-02T04:45:33;103000.59;;;9.10;60.91
73220;BME280;61434;43.538;-5.688;2023-02-02T04:48:00;103005.69;;;8.96;61.10
73220;BME280;61434;43.538;-5.688;2023-02-02T04:50:25;103004.94;;;9.13;60.11
73220;BME280;61434;43.538;-5.688;2023-02-02T04:52:51;103015.22;;;9.03;60.66
73220;BME280;61434;43.538;-5.688;2023-02-02T04:55:17;103012.53;;;8.81;61.10
73220;BME280;61434;43.538;-5.688;2023-02-02T04:57:42;103013.63;;;8.77;61.49
73220;BME280;61434;43.538;-5.688;2023-02-02T05:00:09;103013.63;;;8.77;61.49
73220;BME280;61434;43.538;-5.688;2023-02-02T05:02:39;103010.59;;;8.41;62.53
73220;BME280;61434;43.538;-5.688;2023-02-02T05:05:06;103011.25;;;8.69;61.49
73220;BME280;61434;43.538;-5.688;2023-02-02T05:07:32;103017.19;;;8.78;61.46
73220;BME280;61434;43.538;-5.688;2023-02-02T05:09:58;103010.69;;;8.39;62.12
73220;BME280;61434;43.538;-5.688;2023-02-02T05:12:23;103006.56;;;8.29;62.36
73220;BME280;61434;43.538;-5.688;2023-02-02T05:14:49;103015.25;;;8.36;62.49
73220;BME280;61434;43.538;-5.688;2023-02-02T05:17:14;103016.84;;;8.41;61.85
73220;BME280;61434;43.538;-5.688;2023-02-02T05:19:41;103012.25;;;8.45;61.86
73220;BME280;61434;43.538;-5.688;2023-02-02T05:22:07;103020.69;;;8.34;61.92
73220;BME280;61434;43.538;-5.688;2023-02-02T05:24:33;103008.03;;;8.38;61.90
73220;BME280;61434;43.538;-5.688;2023-02-02T05:26:58;103011.56;;;8.40;61.76
73220;BME280;61434;43.538;-5.688;2023-02-02T05:29:29;103013.19;;;8.20;62.06
73220;BME280;61434;43.538;-5.688;2023-02-02T05:31:57;103014.63;;;8.29;61.78
73220;BME280;61434;43.538;-5.688;2023-02-02T05:34:22;103014.22;;;8.16;62.32
73220;BME280;61434;43.538;-5.688;2023-02-02T05:36:48;103019.88;;;8.56;61.53
73220;BME280;61434;43.538;-5.688;2023-02-02T05:39:14;103025.06;;;8.60;61.72
73220;BME280;61434;43.538;-5.688;2023-02-02T05:41:40;103009.56;;;8.45;61.29
73220;BME280;61434;43.538;-5.688;2023-02-02T05:44:06;103022.63;;;8.31;62.35
73220;BME280;61434;43.538;-5.688;2023-02-02T05:46:31;103018.47;;;8.45;61.38
73220;BME280;61434;43.538;-5.688;2023-02-02T05:48:57;103020.91;;;8.52;62.26
73220;BME280;61434;43.538;-5.688;2023-02-02T05:51:31;103022.16;;;8.43;61.78
73220;BME280;61434;43.538;-5.688;2023-02-02T05:53:57;103026.69;;;8.17;62.34
73220;BME280;61434;43.538;-5.688;2023-02-02T05:56:23;103024.78;;;8.21;63.34
73220;BME280;61434;43.538;-5.688;2023-02-02T05:58:48;103031.91;;;8.22;62.55
73220;BME280;61434;43.538;-5.688;2023-02-02T06:01:15;103030.03;;;8.24;61.93
73220;BME280;61434;43.538;-5.688;2023-02-02T06:03:41;103035.16;;;8.30;62.12
73220;BME280;61434;43.538;-5.688;2023-02-02T06:06:07;103044.63;;;8.64;60.99
73220;BME280;61434;43.538;-5.688;2023-02-02T06:08:33;103049.41;;;8.56;61.00
73220;BME280;61434;43.538;-5.688;2023-02-02T06:10:59;103047.47;;;8.59;61.08
73220;BME280;61434;43.538;-5.688;2023-02-02T06:13:24;103047.78;;;8.52;61.75
73220;BME280;61434;43.538;-5.688;2023-02-02T06:15:50;103047.91;;;8.48;61.90
73220;BME280;61434;43.538;-5.688;2023-02-02T06:18:15;103049.19;;;8.84;60.94
73220;BME280;61434;43.538;-5.688;2023-02-02T06:20:41;103058.00;;;8.42;61.69
73220;BME280;61434;43.538;-5.688;2023-02-02T06:23:07;103048.97;;;8.66;61.64
73220;BME280;61434;43.538;-5.688;2023-02-02T06:25:32;103049.75;;;8.23;62.37
73220;BME280;61434;43.538;-5.688;2023-02-02T06:27:59;103056.13;;;8.20;62.50
73220;BME280;61434;43.538;-5.688;2023-02-02T06:30:25;103053.22;;;8.50;61.68
73220;BME280;61434;43.538;-5.688;2023-02-02T06:32:51;103061.06;;;8.78;60.97
73220;BME280;61434;43.538;-5.688;2023-02-02T06:35:17;103060.28;;;8.74;61.09
73220;BME280;61434;43.538;-5.688;2023-02-02T06:37:43;103059.69;;;8.68;61.34
73220;BME280;61434;43.538;-5.688;2023-02-02T06:40:09;103064.50;;;8.36;62.23
73220;BME280;61434;43.538;-5.688;2023-02-02T06:42:34;103054.19;;;8.47;62.11
73220;BME280;61434;43.538;-5.688;2023-02-02T06:45:01;103061.06;;;8.31;62.54
73220;BME280;61434;43.538;-5.688;2023-02-02T06:47:27;103070.13;;;8.52;61.43
73220;BME280;61434;43.538;-5.688;2023-02-02T06:49:52;103065.50;;;8.32;62.87
73220;BME280;61434;43.538;-5.688;2023-02-02T06:52:18;103071.41;;;8.65;61.77
73220;BME280;61434;43.538;-5.688;2023-02-02T06:54:44;103071.28;;;8.68;60.47
73220;BME280;61434;43.538;-5.688;2023-02-02T06:57:09;103071.50;;;8.62;61.06
73220;BME280;61434;43.538;-5.688;2023-02-02T06:59:35;103076.59;;;8.48;62.02
73220;BME280;61434;43.538;-5.688;2023-02-02T07:02:00;103076.19;;;8.57;61.57
73220;BME280;61434;43.538;-5.688;2023-02-02T07:04:26;103080.50;;;8.39;61.49
73220;BME280;61434;43.538;-5.688;2023-02-02T07:06:51;103081.06;;;8.47;62.10
73220;BME280;61434;43.538;-5.688;2023-02-02T07:09:17;103089.19;;;8.46;61.71
73220;BME280;61434;43.538;-5.688;2023-02-02T07:11:42;103089.34;;;8.41;61.10
73220;BME280;61434;43.538;-5.688;2023-02-02T07:14:08;103093.81;;;8.17;62.28
73220;BME280;61434;43.538;-5.688;2023-02-02T07:16:34;103085.69;;;8.19;62.64
73220;BME280;61434;43.538;-5.688;2023-02-02T07:18:59;103093.38;;;8.30;62.38
73220;BME280;61434;43.538;-5.688;2023-02-02T07:21:25;103098.41;;;8.39;62.38
73220;BME280;61434;43.538;-5.688;2023-02-02T07:23:53;103091.06;;;8.44;62.19
73220;BME280;61434;43.538;-5.688;2023-02-02T07:26:19;103099.28;;;8.14;62.89
73220;BME280;61434;43.538;-5.688;2023-02-02T07:28:45;103095.59;;;7.93;63.52
73220;BME280;61434;43.538;-5.688;2023-02-02T07:33:42;103099.19;;;8.17;63.33
73220;BME280;61434;43.538;-5.688;2023-02-02T07:36:09;103092.09;;;8.40;62.40
73220;BME280;61434;43.538;-5.688;2023-02-02T07:38:35;103090.69;;;8.30;62.93
73220;BME280;61434;43.538;-5.688;2023-02-02T07:41:00;103100.09;;;7.93;64.23
73220;BME280;61434;43.538;-5.688;2023-02-02T07:43:26;103095.31;;;8.01;64.01
73220;BME280;61434;43.538;-5.688;2023-02-02T07:45:52;103096.13;;;8.03;64.10
73220;BME280;61434;43.538;-5.688;2023-02-02T07:48:17;103100.13;;;8.16;63.84
73220;BME280;61434;43.538;-5.688;2023-02-02T07:50:43;103108.41;;;8.10;63.92
73220;BME280;61434;43.538;-5.688;2023-02-02T07:53:08;103112.84;;;8.11;64.01
73220;BME280;61434;43.538;-5.688;2023-02-02T07:55:34;103118.53;;;8.02;64.69
73220;BME280;61434;43.538;-5.688;2023-02-02T07:57:59;103124.25;;;8.41;63.84
73220;BME280;61434;43.538;-5.688;2023-02-02T08:00:26;103115.41;;;8.39;63.96
73220;BME280;61434;43.538;-5.688;2023-02-02T08:02:52;103121.41;;;8.69;62.07
73220;BME280;61434;43.538;-5.688;2023-02-02T08:05:18;103131.84;;;8.29;62.88
73220;BME280;61434;43.538;-5.688;2023-02-02T08:07:44;103134.59;;;8.27;63.61
73220;BME280;61434;43.538;-5.688;2023-02-02T08:10:10;103124.50;;;8.59;63.36
73220;BME280;61434;43.538;-5.688;2023-02-02T08:12:36;103127.88;;;8.64;62.81
73220;BME280;61434;43.538;-5.688;2023-02-02T08:15:01;103130.69;;;8.37;62.96
73220;BME280;61434;43.538;-5.688;2023-02-02T08:17:27;103130.59;;;8.15;63.91
73220;BME280;61434;43.538;-5.688;2023-02-02T08:19:52;103129.13;;;8.30;63.67
73220;BME280;61434;43.538;-5.688;2023-02-02T08:22:18;103138.16;;;8.28;63.84
73220;BME280;61434;43.538;-5.688;2023-02-02T08:24:43;103139.22;;;8.23;63.90
73220;BME280;61434;43.538;-5.688;2023-02-02T08:27:09;103133.88;;;8.47;63.49
73220;BME280;61434;43.538;-5.688;2023-02-02T08:29:36;103149.31;;;8.42;64.33
73220;BME280;61434;43.538;-5.688;2023-02-02T08:32:03;61621.03;;;-144.32;100.00
73220;BME280;61434;43.538;-5.688;2023-02-02T08:34:29;103145.84;;;8.85;62.19
73220;BME280;61434;43.538;-5.688;2023-02-02T08:36:54;103146.50;;;8.92;62.03
73220;BME280;61434;43.538;-5.688;2023-02-02T08:39:20;103150.94;;;8.69;62.79
73220;BME280;61434;43.538;-5.688;2023-02-02T08:41:45;103151.47;;;8.79;62.85
73220;BME280;61434;43.538;-5.688;2023-02-02T08:44:13;103154.75;;;8.64;63.30
73220;BME280;61434;43.538;-5.688;2023-02-02T08:46:40;103153.38;;;8.76;63.01
73220;BME280;61434;43.538;-5.688;2023-02-02T08:49:07;103152.78;;;8.91;62.34
73220;BME280;61434;43.538;-5.688;2023-02-02T08:51:34;103155.22;;;8.75;62.96
73220;BME280;61434;43.538;-5.688;2023-02-02T08:54:00;103157.78;;;8.78;62.64
73220;BME280;61434;43.538;-5.688;2023-02-02T08:56:25;103155.88;;;8.82;62.73
73220;BME280;61434;43.538;-5.688;2023-02-02T08:58:56;103168.34;;;8.83;62.78
73220;BME280;61434;43.538;-5.688;2023-02-02T09:01:27;103167.94;;;8.93;62.34
73220;BME280;61434;43.538;-5.688;2023-02-02T09:03:55;103165.50;;;9.09;61.85
73220;BME280;61434;43.538;-5.688;2023-02-02T09:06:22;103169.50;;;8.99;62.48
73220;BME280;61434;43.538;-5.688;2023-02-02T09:08:50;103175.00;;;9.18;61.84
73220;BME280;61434;43.538;-5.688;2023-02-02T09:11:18;103174.13;;;9.17;61.91
73220;BME280;61434;43.538;-5.688;2023-02-02T09:13:45;103188.03;;;9.29;61.68
73220;BME280;61434;43.538;-5.688;2023-02-02T09:16:20;103180.72;;;9.54;61.08
73220;BME280;61434;43.538;-5.688;2023-02-02T09:18:46;103183.25;;;9.57;61.19
73220;BME280;61434;43.538;-5.688;2023-02-02T09:21:14;103195.16;;;9.73;60.78
73220;BME280;61434;43.538;-5.688;2023-02-02T09:23:41;103193.59;;;9.68;60.41
73220;BME280;61434;43.538;-5.688;2023-02-02T09:26:09;103203.75;;;9.82;60.24
73220;BME280;61434;43.538;-5.688;2023-02-02T09:28:35;103191.19;;;9.82;60.64
73220;BME280;61434;43.538;-5.688;2023-02-02T09:31:01;103188.25;;;10.29;59.29
73220;BME280;61434;43.538;-5.688;2023-02-02T09:33:27;61621.03;;;-144.32;100.00
73220;BME280;61434;43.538;-5.688;2023-02-02T09:35:52;61621.03;;;-144.32;100.00
73220;BME280;61434;43.538;-5.688;2023-02-02T09:38:17;61621.03;;;-144.32;100.00
73220;BME280;61434;43.538;-5.688;2023-02-02T09:40:43;61621.03;;;-144.32;100.00
73220;BME280;61434;43.538;-5.688;2023-02-02T09:45:45;61621.03;;;-144.32;100.00
73220;BME280;61434;43.538;-5.688;2023-02-02T09:48:43;61621.03;;;-144.32;100.00
73220;BME280;61434;43.538;-5.688;2023-02-02T09:51:17;61621.03;;;-144.32;100.00
73220;BME280;61434;43.538;-5.688;2023-02-02T09:53:55;61621.03;;;-144.32;100.00
73220;BME280;61434;43.538;-5.688;2023-02-02T09:56:33;61621.03;;;-144.32;100.00
73220;BME280;61434;43.538;-5.688;2023-02-02T09:59:02;61621.03;;;-144.32;100.00
73220;BME280;61434;43.538;-5.688;2023-02-02T10:01:33;61621.03;;;-144.32;100.00
73220;BME280;61434;43.538;-5.688;2023-02-02T10:04:16;61621.03;;;-144.32;100.00
73220;BME280;61434;43.538;-5.688;2023-02-02T10:06:46;61621.03;;;-144.32;100.00
73220;BME280;61434;43.538;-5.688;2023-02-02T10:11:44;61621.03;;;-144.32;100.00
73220;BME280;61434;43.538;-5.688;2023-02-02T10:14:29;61621.03;;;-144.32;100.00
73220;BME280;61434;43.538;-5.688;2023-02-02T10:17:02;61621.03;;;-144.32;100.00
73220;BME280;61434;43.538;-5.688;2023-02-02T10:19:35;61621.03;;;-144.32;100.00
73220;BME280;61434;43.538;-5.688;2023-02-02T10:24:35;61621.03;;;-144.32;100.00
73220;BME280;61434;43.538;-5.688;2023-02-02T10:27:04;61621.03;;;-144.32;100.00
73220;BME280;61434;43.538;-5.688;2023-02-02T10:32:52;61621.03;;;-144.32;100.00
73220;BME280;61434;43.538;-5.688;2023-02-02T10:40:50;61621.03;;;-144.32;100.00
73220;BME280;61434;43.538;-5.688;2023-02-02T10:46:26;61621.03;;;-144.32;100.00
73220;BME280;61434;43.538;-5.688;2023-02-02T10:49:34;61621.03;;;-144.32;100.00
73220;BME280;61434;43.538;-5.688;2023-02-02T10:52:27;61621.03;;;-144.32;100.00
73220;BME280;61434;43.538;-5.688;2023-02-02T10:55:02;61621.03;;;-144.32;100.00
73220;BME280;61434;43.538;-5.688;2023-02-02T11:00:55;61621.03;;;-144.32;100.00
73220;BME280;61434;43.538;-5.688;2023-02-02T11:03:28;61621.03;;;-144.32;100.00
73220;BME280;61434;43.538;-5.688;2023-02-02T11:05:55;61621.03;;;-144.32;100.00
73220;BME280;61434;43.538;-5.688;2023-02-02T11:08:43;61621.03;;;-144.32;100.00
73220;BME280;61434;43.538;-5.688;2023-02-02T11:16:19;61621.03;;;-144.32;100.00
73220;BME280;61434;43.538;-5.688;2023-02-02T11:18:46;61621.03;;;-144.32;100.00
73220;BME280;61434;43.538;-5.688;2023-02-02T11:21:17;61621.03;;;-144.32;100.00
73220;BME280;61434;43.538;-5.688;2023-02-02T11:24:00;61621.03;;;-144.32;100.00
73220;BME280;61434;43.538;-5.688;2023-02-02T11:26:49;61621.03;;;-144.32;100.00
73220;BME280;61434;43.538;-5.688;2023-02-02T11:32:32;61621.03;;;-144.32;100.00
73220;BME280;61434;43.538;-5.688;2023-02-02T11:35:22;61621.03;;;-144.32;100.00
73220;BME280;61434;43.538;-5.688;2023-02-02T11:37:57;61621.03;;;-144.32;100.00
73220;BME280;61434;43.538;-5.688;2023-02-02T11:40:43;61621.03;;;-144.32;100.00
73220;BME280;61434;43.538;-5.688;2023-02-02T11:46:03;61621.03;;;-144.32;100.00
73220;BME280;61434;43.538;-5.688;2023-02-02T11:48:35;61621.03;;;-144.32;100.00
73220;BME280;61434;43.538;-5.688;2023-02-02T11:51:03;61621.03;;;-144.32;100.00
73220;BME280;61434;43.538;-5.688;2023-02-02T11:56:05;61621.03;;;-144.32;100.00
73220;BME280;61434;43.538;-5.688;2023-02-02T12:01:21;61621.03;;;-144.32;100.00
73220;BME280;61434;43.538;-5.688;2023-02-02T12:03:47;61621.03;;;-144.32;100.00
73220;BME280;61434;43.538;-5.688;2023-02-02T12:08:43;61621.03;;;-144.32;100.00
73220;BME280;61434;43.538;-5.688;2023-02-02T12:11:20;61621.03;;;-144.32;100.00
73220;BME280;61434;43.538;-5.688;2023-02-02T12:28:20;61621.03;;;-144.32;100.00
73220;BME280;61434;43.538;-5.688;2023-02-02T12:36:33;61621.03;;;-144.32;100.00
73220;BME280;61434;43.538;-5.688;2023-02-02T12:39:16;61621.03;;;-144.32;100.00
73220;BME280;61434;43.538;-5.688;2023-02-02T12:42:18;61621.03;;;-144.32;100.00
73220;BME280;61434;43.538;-5.688;2023-02-02T12:44:55;61621.03;;;-144.32;100.00
73220;BME280;61434;43.538;-5.688;2023-02-02T12:50:13;61621.03;;;-144.32;100.00
73220;BME280;61434;43.538;-5.688;2023-02-02T12:55:49;61621.03;;;-144.32;100.00
73220;BME280;61434;43.538;-5.688;2023-02-02T13:10:08;61621.03;;;-144.32;100.00
73220;BME280;61434;43.538;-5.688;2023-02-02T13:12:52;61621.03;;;-144.32;100.00
73220;BME280;61434;43.538;-5.688;2023-02-02T13:15:21;61621.03;;;-144.32;100.00
73220;BME280;61434;43.538;-5.688;2023-02-02T13:17:52;61621.03;;;-144.32;100.00
73220;BME280;61434;43.538;-5.688;2023-02-02T13:20:41;61621.03;;;-144.32;100.00
73220;BME280;61434;43.538;-5.688;2023-02-02T13:23:21;61621.03;;;-144.32;100.00
73220;BME280;61434;43.538;-5.688;2023-02-02T13:28:51;61621.03;;;-144.32;100.00
73220;BME280;61434;43.538;-5.688;2023-02-02T13:31:22;61621.03;;;-144.32;100.00
73220;BME280;61434;43.538;-5.688;2023-02-02T13:34:14;61621.03;;;-144.32;100.00
73220;BME280;61434;43.538;-5.688;2023-02-02T13:36:44;61621.03;;;-144.32;100.00
73220;BME280;61434;43.538;-5.688;2023-02-02T13:39:52;61621.03;;;-144.32;100.00
73220;BME280;61434;43.538;-5.688;2023-02-02T13:45:01;61621.03;;;-144.32;100.00
73220;BME280;61434;43.538;-5.688;2023-02-02T13:47:46;61621.03;;;-144.32;100.00
73220;BME280;61434;43.538;-5.688;2023-02-02T13:50:16;61621.03;;;-144.32;100.00
73220;BME280;61434;43.538;-5.688;2023-02-02T13:58:19;61621.03;;;-144.32;100.00
73220;BME280;61434;43.538;-5.688;2023-02-02T14:00:55;61621.03;;;-144.32;100.00
73220;BME280;61434;43.538;-5.688;2023-02-02T14:03:53;61621.03;;;-144.32;100.00
73220;BME280;61434;43.538;-5.688;2023-02-02T14:06:21;61621.03;;;-144.32;100.00
73220;BME280;61434;43.538;-5.688;2023-02-02T14:08:57;61621.03;;;-144.32;100.00
73220;BME280;61434;43.538;-5.688;2023-02-02T14:14:18;61621.03;;;-144.32;100.00
73220;BME280;61434;43.538;-5.688;2023-02-02T14:26:56;61621.03;;;-144.32;100.00
73220;BME280;61434;43.538;-5.688;2023-02-02T14:34:44;61621.03;;;-144.32;100.00
73220;BME280;61434;43.538;-5.688;2023-02-02T14:40:31;103073.09;;;14.83;48.11
73220;BME280;61434;43.538;-5.688;2023-02-02T14:51:30;61621.03;;;-144.32;100.00
73220;BME280;61434;43.538;-5.688;2023-02-02T14:53:59;103081.84;;;14.74;48.64
73220;BME280;61434;43.538;-5.688;2023-02-02T14:56:44;103078.72;;;14.80;48.68
73220;BME280;61434;43.538;-5.688;2023-02-02T14:59:35;61621.03;;;-144.32;100.00
73220;BME280;61434;43.538;-5.688;2023-02-02T15:04:34;61621.03;;;-144.32;100.00
73220;BME280;61434;43.538;-5.688;2023-02-02T15:09:54;61621.03;;;-144.32;100.00
73220;BME280;61434;43.538;-5.688;2023-02-02T15:20:40;61621.03;;;-144.32;100.00
73220;BME280;61434;43.538;-5.688;2023-02-02T15:25:43;61621.03;;;-144.32;100.00
73220;BME280;61434;43.538;-5.688;2023-02-02T15:28:23;61621.03;;;-144.32;100.00